sensor_id;sensor_type;location;lat;lon;timestamp;temperature;humidity
26336;DHT22;14047;50.936;4.654;2023-02-01T00:02:01;7.50;99.90
26336;DHT22;14047;50.936;4.654;2023-02-01T00:04:27;7.50;99.90
26336;DHT22;14047;50.936;4.654;2023-02-01T00:06:53;7.50;99.90
26336;DHT22;14047;50.936;4.654;2023-02-01T00:09:19;7.50;99.90
26336;DHT22;14047;50.936;4.654;2023-02-01T00:11:45;7.50;99.90
26336;DHT22;14047;50.936;4.654;2023-02-01T00:14:12;7.40;99.90
26336;DHT22;14047;50.936;4.654;2023-02-01T00:16:39;7.60;99.90
26336;DHT22;14047;50.936;4.654;2023-02-01T00:19:09;7.70;99.90
26336;DHT22;14047;50.936;4.654;2023-02-01T00:21:35;7.70;99.90
26336;DHT22;14047;50.936;4.654;2023-02-01T00:24:01;7.70;99.90
26336;DHT22;14047;50.936;4.654;2023-02-01T00:26:42;7.70;99.90
26336;DHT22;14047;50.936;4.654;2023-02-01T00:29:18;7.80;99.90
26336;DHT22;14047;50.936;4.654;2023-02-01T00:31:45;7.80;99.90
26336;DHT22;14047;50.936;4.654;2023-02-01T00:34:13;7.70;99.90
26336;DHT22;14047;50.936;4.654;2023-02-01T00:36:40;7.70;99.90
26336;DHT22;14047;50.936;4.654;2023-02-01T00:39:06;7.70;99.90
26336;DHT22;14047;50.936;4.654;2023-02-01T00:41:32;7.70;99.90
26336;DHT22;14047;50.936;4.654;2023-02-01T00:43:58;7.60;99.90
26336;DHT22;14047;50.936;4.654;2023-02-01T00:46:24;7.60;99.90
26336;DHT22;14047;50.936;4.654;2023-02-01T00:48:51;7.60;99.90
26336;DHT22;14047;50.936;4.654;2023-02-01T00:51:20;7.60;99.90
26336;DHT22;14047;50.936;4.654;2023-02-01T00:53:46;7.50;99.90
26336;DHT22;14047;50.936;4.654;2023-02-01T00:56:13;7.60;99.90
26336;DHT22;14047;50.936;4.654;2023-02-01T00:58:39;7.50;99.90
26336;DHT22;14047;50.936;4.654;2023-02-01T01:01:16;7.50;99.90
26336;DHT22;14047;50.936;4.654;2023-02-01T01:03:45;7.40;99.90
26336;DHT22;14047;50.936;4.654;2023-02-01T01:06:17;7.30;99.90
26336;DHT22;14047;50.936;4.654;2023-02-01T01:08:43;7.40;99.90
26336;DHT22;14047;50.936;4.654;2023-02-01T01:11:18;7.30;99.90
26336;DHT22;14047;50.936;4.654;2023-02-01T01:13:47;7.30;99.90
26336;DHT22;14047;50.936;4.654;2023-02-01T01:16:13;7.20;99.90
26336;DHT22;14047;50.936;4.654;2023-02-01T01:18:40;7.30;99.90
26336;DHT22;14047;50.936;4.654;2023-02-01T01:21:07;7.30;99.90
26336;DHT22;14047;50.936;4.654;2023-02-01T01:23:34;7.40;99.90
26336;DHT22;14047;50.936;4.654;2023-02-01T01:26:00;7.40;99.90
26336;DHT22;14047;50.936;4.654;2023-02-01T01:28:26;7.50;99.90
26336;DHT22;14047;50.936;4.654;2023-02-01T01:30:52;7.50;99.90
26336;DHT22;14047;50.936;4.654;2023-02-01T01:33:18;7.60;99.90
26336;DHT22;14047;50.936;4.654;2023-02-01T01:35:44;7.60;99.90
26336;DHT22;14047;50.936;4.654;2023-02-01T01:38:11;7.60;99.90
26336;DHT22;14047;50.936;4.654;2023-02-01T01:40:37;7.60;99.90
26336;DHT22;14047;50.936;4.654;2023-02-01T01:43:12;7.60;99.90
26336;DHT22;14047;50.936;4.654;2023-02-01T01:45:39;7.60;99.90
26336;DHT22;14047;50.936;4.654;2023-02-01T01:50:41;7.60;99.90
26336;DHT22;14047;50.936;4.654;2023-02-01T01:53:11;7.60;99.90
26336;DHT22;14047;50.936;4.654;2023-02-01T01:55:41;7.60;99.90
26336;DHT22;14047;50.936;4.654;2023-02-01T01:58:12;7.50;99.90
26336;DHT22;14047;50.936;4.654;2023-02-01T02:00:40;7.40;99.90
26336;DHT22;14047;50.936;4.654;2023-02-01T02:03:27;7.40;99.90
26336;DHT22;14047;50.936;4.654;2023-02-01T02:05:57;7.40;99.90
26336;DHT22;14047;50.936;4.654;2023-02-01T02:08:25;7.30;99.90
26336;DHT22;14047;50.936;4.654;2023-02-01T02:10:52;7.30;99.90
26336;DHT22;14047;50.936;4.654;2023-02-01T02:13:42;7.30;99.90
26336;DHT22;14047;50.936;4.654;2023-02-01T02:18:45;7.30;99.90
26336;DHT22;14047;50.936;4.654;2023-02-01T02:21:39;7.10;99.90
26336;DHT22;14047;50.936;4.654;2023-02-01T02:26:52;6.90;99.90
26336;DHT22;14047;50.936;4.654;2023-02-01T02:34:51;6.70;99.90
26336;DHT22;14047;50.936;4.654;2023-02-01T02:40:07;6.70;99.90
26336;DHT22;14047;50.936;4.654;2023-02-01T02:46:37;6.60;99.90
26336;DHT22;14047;50.936;4.654;2023-02-01T02:49:34;6.70;99.90
26336;DHT22;14047;50.936;4.654;2023-02-01T02:52:07;6.50;99.90
26336;DHT22;14047;50.936;4.654;2023-02-01T02:54:54;6.60;99.90
26336;DHT22;14047;50.936;4.654;2023-02-01T02:57:35;6.50;99.90
26336;DHT22;14047;50.936;4.654;2023-02-01T03:00:25;6.50;99.90
26336;DHT22;14047;50.936;4.654;2023-02-01T03:03:11;6.50;99.90
26336;DHT22;14047;50.936;4.654;2023-02-01T03:05:56;6.50;99.90
26336;DHT22;14047;50.936;4.654;2023-02-01T03:08:29;6.50;99.90
26336;DHT22;14047;50.936;4.654;2023-02-01T03:21:18;6.50;99.90
26336;DHT22;14047;50.936;4.654;2023-02-01T03:23:47;6.50;99.90
26336;DHT22;14047;50.936;4.654;2023-02-01T03:26:15;6.50;99.90
26336;DHT22;14047;50.936;4.654;2023-02-01T03:28:50;6.50;99.90
26336;DHT22;14047;50.936;4.654;2023-02-01T03:31:18;6.60;99.90
26336;DHT22;14047;50.936;4.654;2023-02-01T03:33:44;6.50;99.90
26336;DHT22;14047;50.936;4.654;2023-02-01T03:36:30;6.50;99.90
26336;DHT22;14047;50.936;4.654;2023-02-01T03:39:18;6.50;99.90
26336;DHT22;14047;50.936;4.654;2023-02-01T03:41:58;6.50;99.90
26336;DHT22;14047;50.936;4.654;2023-02-01T03:44:32;6.50;99.90
26336;DHT22;14047;50.936;4.654;2023-02-01T03:47:23;6.50;99.90
26336;DHT22;14047;50.936;4.654;2023-02-01T03:50:00;6.60;99.90
26336;DHT22;14047;50.936;4.654;2023-02-01T03:52:32;6.50;99.90
26336;DHT22;14047;50.936;4.654;2023-02-01T03:55:04;6.40;99.90
26336;DHT22;14047;50.936;4.654;2023-02-01T03:57:33;6.30;99.90
26336;DHT22;14047;50.936;4.654;2023-02-01T04:00:22;6.30;99.90
26336;DHT22;14047;50.936;4.654;2023-02-01T04:02:50;6.30;99.90
26336;DHT22;14047;50.936;4.654;2023-02-01T04:05:16;6.40;99.90
26336;DHT22;14047;50.936;4.654;2023-02-01T04:07:50;6.30;99.90
26336;DHT22;14047;50.936;4.654;2023-02-01T04:10:17;6.30;99.90
26336;DHT22;14047;50.936;4.654;2023-02-01T04:12:43;6.30;99.90
26336;DHT22;14047;50.936;4.654;2023-02-01T04:15:09;6.30;99.90
26336;DHT22;14047;50.936;4.654;2023-02-01T04:17:35;6.20;99.90
26336;DHT22;14047;50.936;4.654;2023-02-01T04:20:01;6.20;99.90
26336;DHT22;14047;50.936;4.654;2023-02-01T04:22:28;6.10;99.90
26336;DHT22;14047;50.936;4.654;2023-02-01T04:24:55;6.20;99.90
26336;DHT22;14047;50.936;4.654;2023-02-01T04:27:21;6.10;99.90
26336;DHT22;14047;50.936;4.654;2023-02-01T04:29:47;6.10;99.90
26336;DHT22;14047;50.936;4.654;2023-02-01T04:32:16;6.00;99.90
26336;DHT22;14047;50.936;4.654;2023-02-01T04:34:42;6.00;99.90
26336;DHT22;14047;50.936;4.654;2023-02-01T04:37:08;6.00;99.90
26336;DHT22;14047;50.936;4.654;2023-02-01T04:39:35;6.00;99.90
26336;DHT22;14047;50.936;4.654;2023-02-01T04:42:01;6.00;99.90
26336;DHT22;14047;50.936;4.654;2023-02-01T04:44:26;6.00;99.90
26336;DHT22;14047;50.936;4.654;2023-02-01T04:46:52;6.00;99.90
26336;DHT22;14047;50.936;4.654;2023-02-01T04:49:18;5.90;99.90
26336;DHT22;14047;50.936;4.654;2023-02-01T04:51:47;5.80;99.90
26336;DHT22;14047;50.936;4.654;2023-02-01T04:54:14;5.80;99.90
26336;DHT22;14047;50.936;4.654;2023-02-01T04:56:40;5.90;99.90
26336;DHT22;14047;50.936;4.654;2023-02-01T04:59:06;5.80;99.90
26336;DHT22;14047;50.936;4.654;2023-02-01T05:01:32;5.80;99.90
26336;DHT22;14047;50.936;4.654;2023-02-01T05:03:58;5.90;99.90
26336;DHT22;14047;50.936;4.654;2023-02-01T05:06:24;5.80;99.90
26336;DHT22;14047;50.936;4.654;2023-02-01T05:08:50;5.80;99.90
26336;DHT22;14047;50.936;4.654;2023-02-01T05:11:16;5.70;99.90
26336;DHT22;14047;50.936;4.654;2023-02-01T05:14:01;5.70;99.90
26336;DHT22;14047;50.936;4.654;2023-02-01T05:16:27;5.70;99.90
26336;DHT22;14047;50.936;4.654;2023-02-01T05:18:53;5.80;99.90
26336;DHT22;14047;50.936;4.654;2023-02-01T05:21:20;5.60;99.90
26336;DHT22;14047;50.936;4.654;2023-02-01T05:23:46;5.60;99.90
26336;DHT22;14047;50.936;4.654;2023-02-01T05:26:31;5.70;99.90
26336;DHT22;14047;50.936;4.654;2023-02-01T05:28:57;5.60;99.90
26336;DHT22;14047;50.936;4.654;2023-02-01T05:31:24;5.50;99.90
26336;DHT22;14047;50.936;4.654;2023-02-01T05:33:50;5.60;99.90
26336;DHT22;14047;50.936;4.654;2023-02-01T05:36:16;5.40;99.90
26336;DHT22;14047;50.936;4.654;2023-02-01T05:38:42;5.40;99.90
26336;DHT22;14047;50.936;4.654;2023-02-01T05:41:08;5.40;99.90
26336;DHT22;14047;50.936;4.654;2023-02-01T05:43:34;5.40;99.90
26336;DHT22;14047;50.936;4.654;2023-02-01T05:46:00;5.40;99.90
26336;DHT22;14047;50.936;4.654;2023-02-01T05:48:29;5.50;99.90
26336;DHT22;14047;50.936;4.654;2023-02-01T05:50:55;5.40;99.90
26336;DHT22;14047;50.936;4.654;2023-02-01T05:53:21;5.40;99.90
26336;DHT22;14047;50.936;4.654;2023-02-01T05:55:47;5.50;99.90
26336;DHT22;14047;50.936;4.654;2023-02-01T05:58:13;5.40;99.90
26336;DHT22;14047;50.936;4.654;2023-02-01T06:00:39;5.40;99.90
26336;DHT22;14047;50.936;4.654;2023-02-01T06:03:06;5.40;99.90
26336;DHT22;14047;50.936;4.654;2023-02-01T06:05:35;5.40;99.90
26336;DHT22;14047;50.936;4.654;2023-02-01T06:08:02;5.40;99.90
26336;DHT22;14047;50.936;4.654;2023-02-01T06:10:28;5.40;99.90
26336;DHT22;14047;50.936;4.654;2023-02-01T06:12:54;5.50;99.90
26336;DHT22;14047;50.936;4.654;2023-02-01T06:15:20;5.40;99.90
26336;DHT22;14047;50.936;4.654;2023-02-01T06:17:46;5.40;99.90
26336;DHT22;14047;50.936;4.654;2023-02-01T06:20:16;5.40;99.90
26336;DHT22;14047;50.936;4.654;2023-02-01T06:22:42;5.40;99.90
26336;DHT22;14047;50.936;4.654;2023-02-01T06:25:10;5.40;99.90
26336;DHT22;14047;50.936;4.654;2023-02-01T06:27:36;5.40;99.90
26336;DHT22;14047;50.936;4.654;2023-02-01T06:30:04;5.40;99.90
26336;DHT22;14047;50.936;4.654;2023-02-01T06:32:30;5.40;99.90
26336;DHT22;14047;50.936;4.654;2023-02-01T06:34:56;5.30;99.90
26336;DHT22;14047;50.936;4.654;2023-02-01T06:37:23;5.30;99.90
26336;DHT22;14047;50.936;4.654;2023-02-01T06:39:50;5.40;99.90
26336;DHT22;14047;50.936;4.654;2023-02-01T06:42:17;5.30;99.90
26336;DHT22;14047;50.936;4.654;2023-02-01T06:44:43;5.30;99.90
26336;DHT22;14047;50.936;4.654;2023-02-01T06:47:09;5.30;99.90
26336;DHT22;14047;50.936;4.654;2023-02-01T06:49:35;5.30;99.90
26336;DHT22;14047;50.936;4.654;2023-02-01T06:52:01;5.20;99.90
26336;DHT22;14047;50.936;4.654;2023-02-01T06:54:27;5.30;99.90
26336;DHT22;14047;50.936;4.654;2023-02-01T06:56:53;5.30;99.90
26336;DHT22;14047;50.936;4.654;2023-02-01T06:59:19;5.20;99.90
26336;DHT22;14047;50.936;4.654;2023-02-01T07:01:45;5.20;99.90
26336;DHT22;14047;50.936;4.654;2023-02-01T07:04:12;5.20;99.90
26336;DHT22;14047;50.936;4.654;2023-02-01T07:06:39;5.30;99.90
26336;DHT22;14047;50.936;4.654;2023-02-01T07:09:05;5.30;99.90
26336;DHT22;14047;50.936;4.654;2023-02-01T07:11:31;5.30;99.90
26336;DHT22;14047;50.936;4.654;2023-02-01T07:13:58;5.30;99.90
26336;DHT22;14047;50.936;4.654;2023-02-01T07:16:25;5.30;99.90
26336;DHT22;14047;50.936;4.654;2023-02-01T07:18:54;5.30;99.90
26336;DHT22;14047;50.936;4.654;2023-02-01T07:21:20;5.20;99.90
26336;DHT22;14047;50.936;4.654;2023-02-01T07:23:46;5.20;99.90
26336;DHT22;14047;50.936;4.654;2023-02-01T07:26:13;5.20;99.90
26336;DHT22;14047;50.936;4.654;2023-02-01T07:28:40;5.20;99.90
26336;DHT22;14047;50.936;4.654;2023-02-01T07:31:09;5.20;99.90
26336;DHT22;14047;50.936;4.654;2023-02-01T07:33:36;5.20;99.90
26336;DHT22;14047;50.936;4.654;2023-02-01T07:36:04;5.30;99.90
26336;DHT22;14047;50.936;4.654;2023-02-01T07:38:31;5.30;99.90
26336;DHT22;14047;50.936;4.654;2023-02-01T07:41:02;5.30;99.90
26336;DHT22;14047;50.936;4.654;2023-02-01T07:43:29;5.40;99.90
26336;DHT22;14047;50.936;4.654;2023-02-01T07:45:55;5.40;99.90
26336;DHT22;14047;50.936;4.654;2023-02-01T07:48:22;5.40;99.90
26336;DHT22;14047;50.936;4.654;2023-02-01T07:51:15;5.50;99.90
26336;DHT22;14047;50.936;4.654;2023-02-01T07:53:42;5.50;99.90
26336;DHT22;14047;50.936;4.654;2023-02-01T07:56:14;5.50;99.90
26336;DHT22;14047;50.936;4.654;2023-02-01T07:58:41;5.50;99.90
26336;DHT22;14047;50.936;4.654;2023-02-01T08:01:14;5.50;99.90
26336;DHT22;14047;50.936;4.654;2023-02-01T08:04:00;5.50;99.90
26336;DHT22;14047;50.936;4.654;2023-02-01T08:06:29;5.60;99.90
26336;DHT22;14047;50.936;4.654;2023-02-01T08:08:56;5.60;99.90
26336;DHT22;14047;50.936;4.654;2023-02-01T08:11:24;5.60;99.90
26336;DHT22;14047;50.936;4.654;2023-02-01T08:13:51;5.70;99.90
26336;DHT22;14047;50.936;4.654;2023-02-01T08:16:18;5.80;99.90
26336;DHT22;14047;50.936;4.654;2023-02-01T08:18:45;5.80;99.90
26336;DHT22;14047;50.936;4.654;2023-02-01T08:21:13;5.90;99.90
26336;DHT22;14047;50.936;4.654;2023-02-01T08:23:41;5.80;99.90
26336;DHT22;14047;50.936;4.654;2023-02-01T08:26:27;5.80;99.90
26336;DHT22;14047;50.936;4.654;2023-02-01T08:28:55;5.90;99.90
26336;DHT22;14047;50.936;4.654;2023-02-01T08:31:23;5.90;99.90
26336;DHT22;14047;50.936;4.654;2023-02-01T08:33:55;5.90;99.90
26336;DHT22;14047;50.936;4.654;2023-02-01T08:36:23;6.00;99.90
26336;DHT22;14047;50.936;4.654;2023-02-01T08:38:50;6.00;99.90
26336;DHT22;14047;50.936;4.654;2023-02-01T08:41:19;6.10;99.90
26336;DHT22;14047;50.936;4.654;2023-02-01T08:43:46;6.10;99.90
26336;DHT22;14047;50.936;4.654;2023-02-01T08:46:12;6.20;99.90
26336;DHT22;14047;50.936;4.654;2023-02-01T08:48:39;6.20;99.90
26336;DHT22;14047;50.936;4.654;2023-02-01T08:51:08;6.20;99.90
26336;DHT22;14047;50.936;4.654;2023-02-01T08:53:36;6.30;99.90
26336;DHT22;14047;50.936;4.654;2023-02-01T08:56:03;6.30;99.90
26336;DHT22;14047;50.936;4.654;2023-02-01T08:58:29;6.30;99.90
26336;DHT22;14047;50.936;4.654;2023-02-01T09:00:55;6.30;99.90
26336;DHT22;14047;50.936;4.654;2023-02-01T09:03:22;6.40;99.90
26336;DHT22;14047;50.936;4.654;2023-02-01T09:05:47;6.40;99.90
26336;DHT22;14047;50.936;4.654;2023-02-01T09:08:14;6.40;99.90
26336;DHT22;14047;50.936;4.654;2023-02-01T09:10:41;6.40;99.90
26336;DHT22;14047;50.936;4.654;2023-02-01T09:13:08;6.50;99.90
26336;DHT22;14047;50.936;4.654;2023-02-01T09:15:34;6.50;99.90
26336;DHT22;14047;50.936;4.654;2023-02-01T09:18:00;6.50;99.90
26336;DHT22;14047;50.936;4.654;2023-02-01T09:20:27;6.60;99.90
26336;DHT22;14047;50.936;4.654;2023-02-01T09:22:54;6.70;99.90
26336;DHT22;14047;50.936;4.654;2023-02-01T09:25:21;6.70;99.90
26336;DHT22;14047;50.936;4.654;2023-02-01T09:27:46;6.70;99.90
26336;DHT22;14047;50.936;4.654;2023-02-01T09:30:13;6.70;99.90
26336;DHT22;14047;50.936;4.654;2023-02-01T09:32:39;6.70;99.90
26336;DHT22;14047;50.936;4.654;2023-02-01T09:35:05;6.80;99.90
26336;DHT22;14047;50.936;4.654;2023-02-01T09:37:31;6.80;99.90
26336;DHT22;14047;50.936;4.654;2023-02-01T09:40:01;6.80;99.90
26336;DHT22;14047;50.936;4.654;2023-02-01T09:45:49;7.00;99.90
26336;DHT22;14047;50.936;4.654;2023-02-01T09:48:23;6.90;99.90
26336;DHT22;14047;50.936;4.654;2023-02-01T09:50:57;6.90;99.90
26336;DHT22;14047;50.936;4.654;2023-02-01T09:53:32;7.00;99.90
26336;DHT22;14047;50.936;4.654;2023-02-01T09:56:15;7.00;99.90
26336;DHT22;14047;50.936;4.654;2023-02-01T10:01:51;7.20;99.90
26336;DHT22;14047;50.936;4.654;2023-02-01T10:04:18;7.20;99.90
26336;DHT22;14047;50.936;4.654;2023-02-01T10:06:47;7.20;99.90
26336;DHT22;14047;50.936;4.654;2023-02-01T10:09:41;7.30;99.90
26336;DHT22;14047;50.936;4.654;2023-02-01T10:12:55;7.40;99.90
26336;DHT22;14047;50.936;4.654;2023-02-01T10:26:24;7.80;99.90
26336;DHT22;14047;50.936;4.654;2023-02-01T10:28:57;7.90;99.90
26336;DHT22;14047;50.936;4.654;2023-02-01T10:31:29;7.90;99.90
26336;DHT22;14047;50.936;4.654;2023-02-01T10:33:59;7.90;99.90
26336;DHT22;14047;50.936;4.654;2023-02-01T10:36:31;8.00;99.90
26336;DHT22;14047;50.936;4.654;2023-02-01T10:39:01;8.00;99.90
26336;DHT22;14047;50.936;4.654;2023-02-01T10:41:33;8.10;99.90
26336;DHT22;14047;50.936;4.654;2023-02-01T10:44:03;8.20;99.90
26336;DHT22;14047;50.936;4.654;2023-02-01T10:46:31;8.20;99.90
26336;DHT22;14047;50.936;4.654;2023-02-01T10:49:00;8.30;99.90
26336;DHT22;14047;50.936;4.654;2023-02-01T10:51:42;8.30;99.90
26336;DHT22;14047;50.936;4.654;2023-02-01T10:54:17;8.40;99.90
26336;DHT22;14047;50.936;4.654;2023-02-01T10:56:44;8.40;99.90
26336;DHT22;14047;50.936;4.654;2023-02-01T10:59:23;8.40;99.90
26336;DHT22;14047;50.936;4.654;2023-02-01T11:01:51;8.50;99.90
26336;DHT22;14047;50.936;4.654;2023-02-01T11:04:24;8.60;99.90
26336;DHT22;14047;50.936;4.654;2023-02-01T11:09:38;8.60;99.90
26336;DHT22;14047;50.936;4.654;2023-02-01T11:12:07;8.80;99.90
26336;DHT22;14047;50.936;4.654;2023-02-01T11:14:47;9.10;99.90
26336;DHT22;14047;50.936;4.654;2023-02-01T11:17:28;9.20;99.90
26336;DHT22;14047;50.936;4.654;2023-02-01T11:20:04;9.20;99.90
26336;DHT22;14047;50.936;4.654;2023-02-01T11:22:31;9.00;99.90
26336;DHT22;14047;50.936;4.654;2023-02-01T11:24:59;8.90;99.90
26336;DHT22;14047;50.936;4.654;2023-02-01T11:27:27;8.80;99.90
26336;DHT22;14047;50.936;4.654;2023-02-01T11:29:58;8.90;99.90
26336;DHT22;14047;50.936;4.654;2023-02-01T11:32:26;9.10;99.90
26336;DHT22;14047;50.936;4.654;2023-02-01T11:35:00;9.00;99.90
26336;DHT22;14047;50.936;4.654;2023-02-01T11:37:29;9.10;99.90
26336;DHT22;14047;50.936;4.654;2023-02-01T11:39:58;9.10;99.90
26336;DHT22;14047;50.936;4.654;2023-02-01T11:42:25;9.20;99.90
26336;DHT22;14047;50.936;4.654;2023-02-01T11:45:16;9.40;99.90
26336;DHT22;14047;50.936;4.654;2023-02-01T11:47:42;9.60;99.90
26336;DHT22;14047;50.936;4.654;2023-02-01T11:50:17;9.60;99.90
26336;DHT22;14047;50.936;4.654;2023-02-01T12:01:33;10.00;99.90
26336;DHT22;14047;50.936;4.654;2023-02-01T12:04:24;10.10;99.90
26336;DHT22;14047;50.936;4.654;2023-02-01T12:07:11;10.20;99.90
26336;DHT22;14047;50.936;4.654;2023-02-01T12:10:30;10.20;99.90
26336;DHT22;14047;50.936;4.654;2023-02-01T12:16:06;10.10;99.90
26336;DHT22;14047;50.936;4.654;2023-02-01T12:21:44;10.10;99.90
26336;DHT22;14047;50.936;4.654;2023-02-01T12:24:32;10.20;99.90
26336;DHT22;14047;50.936;4.654;2023-02-01T12:38:51;9.60;99.90
26336;DHT22;14047;50.936;4.654;2023-02-01T12:47:18;9.80;99.90
26336;DHT22;14047;50.936;4.654;2023-02-01T12:49:53;9.80;99.90
26336;DHT22;14047;50.936;4.654;2023-02-01T12:52:28;9.80;99.90
26336;DHT22;14047;50.936;4.654;2023-02-01T12:55:09;9.90;99.90
26336;DHT22;14047;50.936;4.654;2023-02-01T12:57:47;9.80;99.90
26336;DHT22;14047;50.936;4.654;2023-02-01T13:00:39;9.80;99.90
26336;DHT22;14047;50.936;4.654;2023-02-01T13:11:37;10.20;99.90
26336;DHT22;14047;50.936;4.654;2023-02-01T13:14:25;10.40;99.90
26336;DHT22;14047;50.936;4.654;2023-02-01T13:16:59;10.40;99.90
26336;DHT22;14047;50.936;4.654;2023-02-01T13:24:54;10.40;99.90
26336;DHT22;14047;50.936;4.654;2023-02-01T13:27:22;10.40;99.90
26336;DHT22;14047;50.936;4.654;2023-02-01T13:30:17;10.50;99.90
26336;DHT22;14047;50.936;4.654;2023-02-01T13:33:00;10.50;99.90
26336;DHT22;14047;50.936;4.654;2023-02-01T13:42:03;10.50;99.90
26336;DHT22;14047;50.936;4.654;2023-02-01T13:44:37;10.60;99.90
26336;DHT22;14047;50.936;4.654;2023-02-01T13:47:18;10.50;99.90
26336;DHT22;14047;50.936;4.654;2023-02-01T13:49:46;10.50;99.90
26336;DHT22;14047;50.936;4.654;2023-02-01T13:57:46;10.20;99.90
26336;DHT22;14047;50.936;4.654;2023-02-01T14:00:34;10.20;99.90
26336;DHT22;14047;50.936;4.654;2023-02-01T14:08:10;10.30;99.90
26336;DHT22;14047;50.936;4.654;2023-02-01T14:13:30;10.30;99.90
26336;DHT22;14047;50.936;4.654;2023-02-01T14:18:58;10.20;99.90
26336;DHT22;14047;50.936;4.654;2023-02-01T14:23:57;10.40;99.90
26336;DHT22;14047;50.936;4.654;2023-02-01T14:26:43;10.40;99.90
26336;DHT22;14047;50.936;4.654;2023-02-01T14:34:35;10.30;99.90
26336;DHT22;14047;50.936;4.654;2023-02-01T14:37:32;10.20;99.90
26336;DHT22;14047;50.936;4.654;2023-02-01T14:58:52;10.20;99.90
26336;DHT22;14047;50.936;4.654;2023-02-01T15:01:34;10.10;99.90
26336;DHT22;14047;50.936;4.654;2023-02-01T15:04:05;10.10;99.90
26336;DHT22;14047;50.936;4.654;2023-02-01T15:06:38;10.00;99.90
26336;DHT22;14047;50.936;4.654;2023-02-01T15:09:15;10.10;99.90
26336;DHT22;14047;50.936;4.654;2023-02-01T15:14:47;10.00;99.90
26336;DHT22;14047;50.936;4.654;2023-02-01T15:17:26;10.10;99.90
26336;DHT22;14047;50.936;4.654;2023-02-01T15:19:57;10.00;99.90
26336;DHT22;14047;50.936;4.654;2023-02-01T15:22:24;10.00;99.90
26336;DHT22;14047;50.936;4.654;2023-02-01T15:24:55;10.00;99.90
26336;DHT22;14047;50.936;4.654;2023-02-01T15:27:22;9.90;99.90
26336;DHT22;14047;50.936;4.654;2023-02-01T15:29:49;9.70;99.90
26336;DHT22;14047;50.936;4.654;2023-02-01T15:32:35;9.70;99.90
26336;DHT22;14047;50.936;4.654;2023-02-01T15:35:04;9.70;99.90
26336;DHT22;14047;50.936;4.654;2023-02-01T15:37:33;9.70;99.90
26336;DHT22;14047;50.936;4.654;2023-02-01T15:40:25;9.70;99.90
26336;DHT22;14047;50.936;4.654;2023-02-01T15:42:54;9.70;99.90
26336;DHT22;14047;50.936;4.654;2023-02-01T15:45:26;9.70;99.90
26336;DHT22;14047;50.936;4.654;2023-02-01T15:47:55;9.60;99.90
26336;DHT22;14047;50.936;4.654;2023-02-01T15:50:23;9.50;99.90
26336;DHT22;14047;50.936;4.654;2023-02-01T15:52:52;9.60;99.90
26336;DHT22;14047;50.936;4.654;2023-02-01T15:55:39;9.50;99.90
26336;DHT22;14047;50.936;4.654;2023-02-01T15:58:23;9.40;99.90
26336;DHT22;14047;50.936;4.654;2023-02-01T16:00:59;9.50;99.90
26336;DHT22;14047;50.936;4.654;2023-02-01T16:03:42;9.50;99.90
26336;DHT22;14047;50.936;4.654;2023-02-01T16:08:55;9.60;99.90
26336;DHT22;14047;50.936;4.654;2023-02-01T16:11:33;9.70;99.90
26336;DHT22;14047;50.936;4.654;2023-02-01T16:14:05;9.80;99.90
26336;DHT22;14047;50.936;4.654;2023-02-01T16:16:31;9.80;99.90
26336;DHT22;14047;50.936;4.654;2023-02-01T16:18:57;9.80;99.90
26336;DHT22;14047;50.936;4.654;2023-02-01T16:21:23;9.60;99.90
26336;DHT22;14047;50.936;4.654;2023-02-01T16:23:53;9.40;99.90
26336;DHT22;14047;50.936;4.654;2023-02-01T16:26:19;9.40;99.90
26336;DHT22;14047;50.936;4.654;2023-02-01T16:28:46;9.40;99.90
26336;DHT22;14047;50.936;4.654;2023-02-01T16:31:14;9.30;99.90
26336;DHT22;14047;50.936;4.654;2023-02-01T16:33:49;9.40;99.90
26336;DHT22;14047;50.936;4.654;2023-02-01T16:36:15;9.30;99.90
26336;DHT22;14047;50.936;4.654;2023-02-01T16:38:42;9.20;99.90
26336;DHT22;14047;50.936;4.654;2023-02-01T16:41:12;9.30;99.90
26336;DHT22;14047;50.936;4.654;2023-02-01T16:43:39;9.30;99.90
26336;DHT22;14047;50.936;4.654;2023-02-01T16:46:14;9.30;99.90
26336;DHT22;14047;50.936;4.654;2023-02-01T16:48:42;9.30;99.90
26336;DHT22;14047;50.936;4.654;2023-02-01T16:51:13;9.30;99.90
26336;DHT22;14047;50.936;4.654;2023-02-01T16:53:42;9.20;99.90
26336;DHT22;14047;50.936;4.654;2023-02-01T16:56:22;9.20;99.90
26336;DHT22;14047;50.936;4.654;2023-02-01T16:58:49;9.30;99.90
26336;DHT22;14047;50.936;4.654;2023-02-01T17:01:17;9.30;99.90
26336;DHT22;14047;50.936;4.654;2023-02-01T17:03:44;9.40;99.90
26336;DHT22;14047;50.936;4.654;2023-02-01T17:06:13;9.40;99.90
26336;DHT22;14047;50.936;4.654;2023-02-01T17:08:46;9.40;99.90
26336;DHT22;14047;50.936;4.654;2023-02-01T17:11:13;9.20;99.90
26336;DHT22;14047;50.936;4.654;2023-02-01T17:13:40;9.20;99.90
26336;DHT22;14047;50.936;4.654;2023-02-01T17:16:30;9.30;99.90
26336;DHT22;14047;50.936;4.654;2023-02-01T17:18:59;9.20;99.90
26336;DHT22;14047;50.936;4.654;2023-02-01T17:21:28;9.20;99.90
26336;DHT22;14047;50.936;4.654;2023-02-01T17:23:56;9.10;99.90
26336;DHT22;14047;50.936;4.654;2023-02-01T17:26:24;9.20;99.90
26336;DHT22;14047;50.936;4.654;2023-02-01T17:28:50;9.20;99.90
26336;DHT22;14047;50.936;4.654;2023-02-01T17:31:17;9.20;99.90
26336;DHT22;14047;50.936;4.654;2023-02-01T17:33:43;9.10;99.90
26336;DHT22;14047;50.936;4.654;2023-02-01T17:36:15;9.10;99.90
26336;DHT22;14047;50.936;4.654;2023-02-01T17:38:42;9.10;99.90
26336;DHT22;14047;50.936;4.654;2023-02-01T17:41:12;9.10;99.90
26336;DHT22;14047;50.936;4.654;2023-02-01T17:43:39;9.00;99.90
26336;DHT22;14047;50.936;4.654;2023-02-01T17:46:14;9.00;99.90
26336;DHT22;14047;50.936;4.654;2023-02-01T17:48:40;9.00;99.90
26336;DHT22;14047;50.936;4.654;2023-02-01T17:51:21;9.10;99.90
26336;DHT22;14047;50.936;4.654;2023-02-01T17:53:48;9.10;99.90
26336;DHT22;14047;50.936;4.654;2023-02-01T17:56:16;9.00;99.90
26336;DHT22;14047;50.936;4.654;2023-02-01T17:58:43;9.00;99.90
26336;DHT22;14047;50.936;4.654;2023-02-01T18:01:18;9.10;99.90
26336;DHT22;14047;50.936;4.654;2023-02-01T18:03:44;9.00;99.90
26336;DHT22;14047;50.936;4.654;2023-02-01T18:06:20;9.10;99.90
26336;DHT22;14047;50.936;4.654;2023-02-01T18:08:46;9.10;99.90
26336;DHT22;14047;50.936;4.654;2023-02-01T18:11:18;9.00;99.90
26336;DHT22;14047;50.936;4.654;2023-02-01T18:13:44;9.00;99.90
26336;DHT22;14047;50.936;4.654;2023-02-01T18:16:21;8.90;99.90
26336;DHT22;14047;50.936;4.654;2023-02-01T18:18:47;8.90;99.90
26336;DHT22;14047;50.936;4.654;2023-02-01T18:21:15;8.90;99.90
26336;DHT22;14047;50.936;4.654;2023-02-01T18:23:42;8.80;99.90
26336;DHT22;14047;50.936;4.654;2023-02-01T18:26:16;8.70;99.90
26336;DHT22;14047;50.936;4.654;2023-02-01T18:28:42;8.70;99.90
26336;DHT22;14047;50.936;4.654;2023-02-01T18:31:23;8.60;99.90
26336;DHT22;14047;50.936;4.654;2023-02-01T18:33:50;8.60;99.90
26336;DHT22;14047;50.936;4.654;2023-02-01T18:36:17;8.50;99.90
26336;DHT22;14047;50.936;4.654;2023-02-01T18:38:43;8.50;99.90
26336;DHT22;14047;50.936;4.654;2023-02-01T18:41:14;8.60;99.90